sensor_id;sensor_type;location;lat;lon;timestamp;temperature;humidity
60027;DHT22;45891;53.006;6.512;2023-02-28T00:01:33;3.70;99.90
60027;DHT22;45891;53.006;6.512;2023-02-28T00:03:59;3.70;99.90
60027;DHT22;45891;53.006;6.512;2023-02-28T00:06:26;3.70;99.90
60027;DHT22;45891;53.006;6.512;2023-02-28T00:08:52;3.60;99.90
60027;DHT22;45891;53.006;6.512;2023-02-28T00:11:18;3.70;99.90
60027;DHT22;45891;53.006;6.512;2023-02-28T00:13:44;3.60;99.90
60027;DHT22;45891;53.006;6.512;2023-02-28T00:16:13;3.70;99.90
60027;DHT22;45891;53.006;6.512;2023-02-28T00:18:39;3.70;99.90
60027;DHT22;45891;53.006;6.512;2023-02-28T00:21:05;3.70;99.90
60027;DHT22;45891;53.006;6.512;2023-02-28T00:23:31;3.70;99.90
60027;DHT22;45891;53.006;6.512;2023-02-28T00:25:57;3.60;99.90
60027;DHT22;45891;53.006;6.512;2023-02-28T00:28:23;3.70;99.90
60027;DHT22;45891;53.006;6.512;2023-02-28T00:30:49;3.60;99.90
60027;DHT22;45891;53.006;6.512;2023-02-28T00:33:15;3.60;99.90
60027;DHT22;45891;53.006;6.512;2023-02-28T00:35:42;3.60;99.90
60027;DHT22;45891;53.006;6.512;2023-02-28T00:38:08;3.60;99.90
60027;DHT22;45891;53.006;6.512;2023-02-28T00:40:34;3.60;99.90
60027;DHT22;45891;53.006;6.512;2023-02-28T00:43:00;3.60;99.90
60027;DHT22;45891;53.006;6.512;2023-02-28T00:45:25;3.60;99.90
60027;DHT22;45891;53.006;6.512;2023-02-28T00:47:51;3.70;99.90
60027;DHT22;45891;53.006;6.512;2023-02-28T00:50:18;3.70;99.90
60027;DHT22;45891;53.006;6.512;2023-02-28T00:52:44;3.80;99.90
60027;DHT22;45891;53.006;6.512;2023-02-28T00:55:10;3.80;99.90
60027;DHT22;45891;53.006;6.512;2023-02-28T00:57:36;3.70;99.90
60027;DHT22;45891;53.006;6.512;2023-02-28T01:00:02;3.70;99.90
60027;DHT22;45891;53.006;6.512;2023-02-28T01:02:29;3.70;99.90
60027;DHT22;45891;53.006;6.512;2023-02-28T01:04:55;3.70;99.90
60027;DHT22;45891;53.006;6.512;2023-02-28T01:07:22;3.70;99.90
60027;DHT22;45891;53.006;6.512;2023-02-28T01:09:48;3.80;99.90
60027;DHT22;45891;53.006;6.512;2023-02-28T01:12:14;3.70;99.90
60027;DHT22;45891;53.006;6.512;2023-02-28T01:14:40;3.70;99.90
60027;DHT22;45891;53.006;6.512;2023-02-28T01:17:06;3.70;99.90
60027;DHT22;45891;53.006;6.512;2023-02-28T01:19:32;3.70;99.90
60027;DHT22;45891;53.006;6.512;2023-02-28T01:22:02;3.70;99.90
60027;DHT22;45891;53.006;6.512;2023-02-28T01:24:28;3.70;99.90
60027;DHT22;45891;53.006;6.512;2023-02-28T01:26:54;3.80;99.90
60027;DHT22;45891;53.006;6.512;2023-02-28T01:29:20;3.70;99.90
60027;DHT22;45891;53.006;6.512;2023-02-28T01:31:46;3.80;99.90
60027;DHT22;45891;53.006;6.512;2023-02-28T01:34:11;3.70;99.90
60027;DHT22;45891;53.006;6.512;2023-02-28T01:36:38;3.70;99.90
60027;DHT22;45891;53.006;6.512;2023-02-28T01:39:03;3.60;99.90
60027;DHT22;45891;53.006;6.512;2023-02-28T01:41:30;3.70;99.90
60027;DHT22;45891;53.006;6.512;2023-02-28T01:44:04;3.70;99.90
60027;DHT22;45891;53.006;6.512;2023-02-28T01:46:31;3.70;99.90
60027;DHT22;45891;53.006;6.512;2023-02-28T01:49:02;3.70;99.90
60027;DHT22;45891;53.006;6.512;2023-02-28T01:51:41;3.70;99.90
60027;DHT22;45891;53.006;6.512;2023-02-28T01:54:14;3.60;99.90
60027;DHT22;45891;53.006;6.512;2023-02-28T01:56:43;3.60;99.90
60027;DHT22;45891;53.006;6.512;2023-02-28T01:59:09;3.70;99.90
60027;DHT22;45891;53.006;6.512;2023-02-28T02:01:35;3.70;99.90
60027;DHT22;45891;53.006;6.512;2023-02-28T02:04:02;3.70;99.90
60027;DHT22;45891;53.006;6.512;2023-02-28T02:06:34;3.70;99.90
60027;DHT22;45891;53.006;6.512;2023-02-28T02:09:01;3.70;99.90
60027;DHT22;45891;53.006;6.512;2023-02-28T02:11:28;3.70;99.90
60027;DHT22;45891;53.006;6.512;2023-02-28T02:13:59;3.70;99.90
60027;DHT22;45891;53.006;6.512;2023-02-28T02:16:32;3.70;99.90
60027;DHT22;45891;53.006;6.512;2023-02-28T02:24:29;3.80;99.90
60027;DHT22;45891;53.006;6.512;2023-02-28T02:27:08;3.70;99.90
60027;DHT22;45891;53.006;6.512;2023-02-28T02:35:11;3.80;99.90
60027;DHT22;45891;53.006;6.512;2023-02-28T02:37:41;3.90;99.90
60027;DHT22;45891;53.006;6.512;2023-02-28T02:42:39;3.80;99.90
60027;DHT22;45891;53.006;6.512;2023-02-28T02:45:10;3.80;99.90
60027;DHT22;45891;53.006;6.512;2023-02-28T02:47:37;3.80;99.90
60027;DHT22;45891;53.006;6.512;2023-02-28T02:50:05;3.80;99.90
60027;DHT22;45891;53.006;6.512;2023-02-28T02:52:34;3.70;99.90
60027;DHT22;45891;53.006;6.512;2023-02-28T02:55:02;3.70;99.90
60027;DHT22;45891;53.006;6.512;2023-02-28T02:57:33;3.80;99.90
60027;DHT22;45891;53.006;6.512;2023-02-28T03:00:01;3.80;99.90
60027;DHT22;45891;53.006;6.512;2023-02-28T03:02:27;3.70;99.90
60027;DHT22;45891;53.006;6.512;2023-02-28T03:05:01;3.70;99.90
60027;DHT22;45891;53.006;6.512;2023-02-28T03:07:28;3.70;99.90
60027;DHT22;45891;53.006;6.512;2023-02-28T03:09:54;3.80;99.90
60027;DHT22;45891;53.006;6.512;2023-02-28T03:12:21;3.70;99.90
60027;DHT22;45891;53.006;6.512;2023-02-28T03:19:47;3.70;99.90
60027;DHT22;45891;53.006;6.512;2023-02-28T03:25:07;3.80;99.90
60027;DHT22;45891;53.006;6.512;2023-02-28T03:32:58;3.60;99.90
60027;DHT22;45891;53.006;6.512;2023-02-28T03:35:34;3.70;99.90
60027;DHT22;45891;53.006;6.512;2023-02-28T03:38:09;3.50;99.90
60027;DHT22;45891;53.006;6.512;2023-02-28T03:40:40;3.50;99.90
60027;DHT22;45891;53.006;6.512;2023-02-28T03:43:09;3.50;99.90
60027;DHT22;45891;53.006;6.512;2023-02-28T03:45:36;3.40;99.90
60027;DHT22;45891;53.006;6.512;2023-02-28T03:50:42;3.40;99.90
60027;DHT22;45891;53.006;6.512;2023-02-28T03:55:55;3.30;99.90
60027;DHT22;45891;53.006;6.512;2023-02-28T03:58:24;3.30;99.90
60027;DHT22;45891;53.006;6.512;2023-02-28T04:00:57;3.30;99.90
60027;DHT22;45891;53.006;6.512;2023-02-28T04:03:24;3.30;99.90
60027;DHT22;45891;53.006;6.512;2023-02-28T04:05:51;3.20;99.90
60027;DHT22;45891;53.006;6.512;2023-02-28T04:08:17;3.30;99.90
60027;DHT22;45891;53.006;6.512;2023-02-28T04:10:44;3.20;99.90
60027;DHT22;45891;53.006;6.512;2023-02-28T04:13:10;3.20;99.90
60027;DHT22;45891;53.006;6.512;2023-02-28T04:15:36;3.20;99.90
60027;DHT22;45891;53.006;6.512;2023-02-28T04:18:02;3.20;99.90
60027;DHT22;45891;53.006;6.512;2023-02-28T04:20:28;3.10;99.90
60027;DHT22;45891;53.006;6.512;2023-02-28T04:22:54;3.10;99.90
60027;DHT22;45891;53.006;6.512;2023-02-28T04:25:20;3.10;99.90
60027;DHT22;45891;53.006;6.512;2023-02-28T04:27:46;3.10;99.90
60027;DHT22;45891;53.006;6.512;2023-02-28T04:30:12;3.10;99.90
60027;DHT22;45891;53.006;6.512;2023-02-28T04:32:38;3.10;99.90
60027;DHT22;45891;53.006;6.512;2023-02-28T04:35:04;3.10;99.90
60027;DHT22;45891;53.006;6.512;2023-02-28T04:37:30;3.10;99.90
60027;DHT22;45891;53.006;6.512;2023-02-28T04:40:00;3.10;99.90
60027;DHT22;45891;53.006;6.512;2023-02-28T04:42:26;3.10;99.90
60027;DHT22;45891;53.006;6.512;2023-02-28T04:44:52;3.10;99.90
60027;DHT22;45891;53.006;6.512;2023-02-28T04:47:18;3.10;99.90
60027;DHT22;45891;53.006;6.512;2023-02-28T04:49:44;3.10;99.90
60027;DHT22;45891;53.006;6.512;2023-02-28T04:52:10;3.10;99.90
60027;DHT22;45891;53.006;6.512;2023-02-28T04:54:36;3.10;99.90
60027;DHT22;45891;53.006;6.512;2023-02-28T04:57:04;3.10;99.90
60027;DHT22;45891;53.006;6.512;2023-02-28T04:59:30;3.10;99.90
60027;DHT22;45891;53.006;6.512;2023-02-28T05:01:56;3.00;99.90
60027;DHT22;45891;53.006;6.512;2023-02-28T05:04:22;3.00;99.90
60027;DHT22;45891;53.006;6.512;2023-02-28T05:06:47;3.00;99.90
60027;DHT22;45891;53.006;6.512;2023-02-28T05:09:13;3.00;99.90
60027;DHT22;45891;53.006;6.512;2023-02-28T05:11:39;3.00;99.90
60027;DHT22;45891;53.006;6.512;2023-02-28T05:14:07;2.90;99.90
60027;DHT22;45891;53.006;6.512;2023-02-28T05:16:34;2.80;99.90
60027;DHT22;45891;53.006;6.512;2023-02-28T05:19:00;2.80;99.90
60027;DHT22;45891;53.006;6.512;2023-02-28T05:21:28;2.70;99.90
60027;DHT22;45891;53.006;6.512;2023-02-28T05:23:55;2.70;99.90
60027;DHT22;45891;53.006;6.512;2023-02-28T05:26:22;2.60;99.90
60027;DHT22;45891;53.006;6.512;2023-02-28T05:28:48;2.60;99.90
60027;DHT22;45891;53.006;6.512;2023-02-28T05:31:14;2.60;99.90
60027;DHT22;45891;53.006;6.512;2023-02-28T05:33:40;2.50;99.90
60027;DHT22;45891;53.006;6.512;2023-02-28T05:36:06;2.50;99.90
60027;DHT22;45891;53.006;6.512;2023-02-28T05:38:33;2.50;99.90
60027;DHT22;45891;53.006;6.512;2023-02-28T05:40:58;2.40;99.90
60027;DHT22;45891;53.006;6.512;2023-02-28T05:43:24;2.40;99.90
60027;DHT22;45891;53.006;6.512;2023-02-28T05:45:51;2.50;99.90
60027;DHT22;45891;53.006;6.512;2023-02-28T05:48:16;2.50;99.90
60027;DHT22;45891;53.006;6.512;2023-02-28T05:50:43;2.50;99.90
60027;DHT22;45891;53.006;6.512;2023-02-28T05:53:11;2.50;99.90
60027;DHT22;45891;53.006;6.512;2023-02-28T05:55:37;2.40;99.90
60027;DHT22;45891;53.006;6.512;2023-02-28T05:58:03;2.40;99.90
60027;DHT22;45891;53.006;6.512;2023-02-28T06:00:29;2.40;99.90
60027;DHT22;45891;53.006;6.512;2023-02-28T06:02:55;2.40;99.90
60027;DHT22;45891;53.006;6.512;2023-02-28T06:05:27;2.40;99.90
60027;DHT22;45891;53.006;6.512;2023-02-28T06:07:53;2.40;99.90
60027;DHT22;45891;53.006;6.512;2023-02-28T06:10:19;2.40;99.90
60027;DHT22;45891;53.006;6.512;2023-02-28T06:12:45;2.40;99.90
60027;DHT22;45891;53.006;6.512;2023-02-28T06:15:12;2.40;99.90
60027;DHT22;45891;53.006;6.512;2023-02-28T06:17:38;2.30;99.90
60027;DHT22;45891;53.006;6.512;2023-02-28T06:20:04;2.30;99.90
60027;DHT22;45891;53.006;6.512;2023-02-28T06:22:31;2.30;99.90
60027;DHT22;45891;53.006;6.512;2023-02-28T06:24:57;2.30;99.90
60027;DHT22;45891;53.006;6.512;2023-02-28T06:27:23;2.30;99.90
60027;DHT22;45891;53.006;6.512;2023-02-28T06:29:52;2.30;99.90
60027;DHT22;45891;53.006;6.512;2023-02-28T06:32:18;2.30;99.90
60027;DHT22;45891;53.006;6.512;2023-02-28T06:34:45;2.30;99.90
60027;DHT22;45891;53.006;6.512;2023-02-28T06:37:11;2.30;99.90
60027;DHT22;45891;53.006;6.512;2023-02-28T06:39:37;2.30;99.90
60027;DHT22;45891;53.006;6.512;2023-02-28T06:42:03;2.30;99.90
60027;DHT22;45891;53.006;6.512;2023-02-28T06:44:29;2.20;99.90
60027;DHT22;45891;53.006;6.512;2023-02-28T06:47:01;2.20;99.90
60027;DHT22;45891;53.006;6.512;2023-02-28T06:49:29;2.20;99.90
60027;DHT22;45891;53.006;6.512;2023-02-28T06:51:55;2.30;99.90
60027;DHT22;45891;53.006;6.512;2023-02-28T06:54:21;2.20;99.90
60027;DHT22;45891;53.006;6.512;2023-02-28T06:56:47;2.30;99.90
60027;DHT22;45891;53.006;6.512;2023-02-28T06:59:13;2.20;99.90
60027;DHT22;45891;53.006;6.512;2023-02-28T07:01:40;2.30;99.90
60027;DHT22;45891;53.006;6.512;2023-02-28T07:04:06;2.30;99.90
60027;DHT22;45891;53.006;6.512;2023-02-28T07:06:32;2.30;99.90
60027;DHT22;45891;53.006;6.512;2023-02-28T07:08:58;2.40;99.90
60027;DHT22;45891;53.006;6.512;2023-02-28T07:11:25;2.30;99.90
60027;DHT22;45891;53.006;6.512;2023-02-28T07:13:52;2.40;99.90
60027;DHT22;45891;53.006;6.512;2023-02-28T07:16:18;2.40;99.90
60027;DHT22;45891;53.006;6.512;2023-02-28T07:18:43;2.40;99.90
60027;DHT22;45891;53.006;6.512;2023-02-28T07:21:10;2.40;99.90
60027;DHT22;45891;53.006;6.512;2023-02-28T07:23:36;2.40;99.90
60027;DHT22;45891;53.006;6.512;2023-02-28T07:26:04;2.40;99.90
60027;DHT22;45891;53.006;6.512;2023-02-28T07:28:30;2.40;99.90
60027;DHT22;45891;53.006;6.512;2023-02-28T07:30:56;2.40;99.90
60027;DHT22;45891;53.006;6.512;2023-02-28T07:33:22;2.50;99.90
60027;DHT22;45891;53.006;6.512;2023-02-28T07:35:49;2.40;99.90
60027;DHT22;45891;53.006;6.512;2023-02-28T07:38:15;2.50;99.90
60027;DHT22;45891;53.006;6.512;2023-02-28T07:40:41;2.50;99.90
60027;DHT22;45891;53.006;6.512;2023-02-28T07:43:07;2.50;99.90
60027;DHT22;45891;53.006;6.512;2023-02-28T07:45:33;2.50;99.90
60027;DHT22;45891;53.006;6.512;2023-02-28T07:48:00;2.50;99.90
60027;DHT22;45891;53.006;6.512;2023-02-28T07:50:26;2.50;99.90
60027;DHT22;45891;53.006;6.512;2023-02-28T07:52:57;2.50;99.90
60027;DHT22;45891;53.006;6.512;2023-02-28T07:55:23;2.60;99.90
60027;DHT22;45891;53.006;6.512;2023-02-28T07:57:49;2.60;99.90
60027;DHT22;45891;53.006;6.512;2023-02-28T08:00:15;2.70;99.90
60027;DHT22;45891;53.006;6.512;2023-02-28T08:02:41;2.70;99.90
60027;DHT22;45891;53.006;6.512;2023-02-28T08:05:07;2.70;99.90
60027;DHT22;45891;53.006;6.512;2023-02-28T08:07:33;2.80;99.90
60027;DHT22;45891;53.006;6.512;2023-02-28T08:09:59;2.80;99.90
60027;DHT22;45891;53.006;6.512;2023-02-28T08:12:25;2.90;99.90
60027;DHT22;45891;53.006;6.512;2023-02-28T08:14:51;2.90;99.90
60027;DHT22;45891;53.006;6.512;2023-02-28T08:17:17;2.90;99.90
60027;DHT22;45891;53.006;6.512;2023-02-28T08:19:46;3.00;99.90
60027;DHT22;45891;53.006;6.512;2023-02-28T08:22:12;3.00;99.90
60027;DHT22;45891;53.006;6.512;2023-02-28T08:24:38;3.00;99.90
60027;DHT22;45891;53.006;6.512;2023-02-28T08:27:06;3.00;99.90
60027;DHT22;45891;53.006;6.512;2023-02-28T08:29:32;3.10;99.90
60027;DHT22;45891;53.006;6.512;2023-02-28T08:31:58;3.20;99.90
60027;DHT22;45891;53.006;6.512;2023-02-28T08:34:24;3.10;99.90
60027;DHT22;45891;53.006;6.512;2023-02-28T08:36:50;3.20;99.90
60027;DHT22;45891;53.006;6.512;2023-02-28T08:39:16;3.20;99.90
60027;DHT22;45891;53.006;6.512;2023-02-28T08:41:42;3.30;99.90
60027;DHT22;45891;53.006;6.512;2023-02-28T08:44:08;3.30;99.90
60027;DHT22;45891;53.006;6.512;2023-02-28T08:46:34;3.30;99.90
60027;DHT22;45891;53.006;6.512;2023-02-28T08:49:00;3.40;99.90
60027;DHT22;45891;53.006;6.512;2023-02-28T08:51:27;3.50;99.90
60027;DHT22;45891;53.006;6.512;2023-02-28T08:53:54;3.70;99.90
60027;DHT22;45891;53.006;6.512;2023-02-28T08:56:21;3.80;99.90
60027;DHT22;45891;53.006;6.512;2023-02-28T08:58:47;3.90;99.90
60027;DHT22;45891;53.006;6.512;2023-02-28T09:01:21;4.10;99.90
60027;DHT22;45891;53.006;6.512;2023-02-28T09:03:47;4.20;99.90
60027;DHT22;45891;53.006;6.512;2023-02-28T09:06:14;4.40;99.90
60027;DHT22;45891;53.006;6.512;2023-02-28T09:08:41;4.50;99.90
60027;DHT22;45891;53.006;6.512;2023-02-28T09:11:07;4.50;99.90
60027;DHT22;45891;53.006;6.512;2023-02-28T09:13:33;4.60;99.90
60027;DHT22;45891;53.006;6.512;2023-02-28T09:15:59;4.50;99.90
60027;DHT22;45891;53.006;6.512;2023-02-28T09:18:26;4.30;99.90
60027;DHT22;45891;53.006;6.512;2023-02-28T09:20:53;4.20;99.90
60027;DHT22;45891;53.006;6.512;2023-02-28T09:23:19;4.00;99.90
60027;DHT22;45891;53.006;6.512;2023-02-28T09:25:49;3.90;99.90
60027;DHT22;45891;53.006;6.512;2023-02-28T09:28:16;3.80;99.90
60027;DHT22;45891;53.006;6.512;2023-02-28T09:30:44;3.80;99.90
60027;DHT22;45891;53.006;6.512;2023-02-28T09:33:10;3.80;99.90
60027;DHT22;45891;53.006;6.512;2023-02-28T09:35:36;3.80;99.90
60027;DHT22;45891;53.006;6.512;2023-02-28T09:38:03;3.80;99.90
60027;DHT22;45891;53.006;6.512;2023-02-28T09:40:29;3.80;99.90
60027;DHT22;45891;53.006;6.512;2023-02-28T09:42:56;3.80;99.90
60027;DHT22;45891;53.006;6.512;2023-02-28T09:45:30;3.80;99.90
60027;DHT22;45891;53.006;6.512;2023-02-28T09:48:06;3.80;99.90
60027;DHT22;45891;53.006;6.512;2023-02-28T09:50:38;3.80;99.90
60027;DHT22;45891;53.006;6.512;2023-02-28T09:53:11;3.80;99.90
60027;DHT22;45891;53.006;6.512;2023-02-28T09:55:44;3.90;99.90
60027;DHT22;45891;53.006;6.512;2023-02-28T10:00:59;3.90;99.90
60027;DHT22;45891;53.006;6.512;2023-02-28T10:06:16;4.00;99.90
60027;DHT22;45891;53.006;6.512;2023-02-28T10:11:16;4.20;99.90
60027;DHT22;45891;53.006;6.512;2023-02-28T10:16:33;4.30;99.90
60027;DHT22;45891;53.006;6.512;2023-02-28T10:19:17;4.30;99.90
60027;DHT22;45891;53.006;6.512;2023-02-28T10:21:47;4.30;99.90
60027;DHT22;45891;53.006;6.512;2023-02-28T10:26:40;4.40;99.90
60027;DHT22;45891;53.006;6.512;2023-02-28T10:29:09;4.60;99.90
60027;DHT22;45891;53.006;6.512;2023-02-28T10:31:36;4.70;99.90
60027;DHT22;45891;53.006;6.512;2023-02-28T10:34:01;4.70;99.90
60027;DHT22;45891;53.006;6.512;2023-02-28T10:36:29;4.80;99.90
60027;DHT22;45891;53.006;6.512;2023-02-28T10:38:55;4.80;99.90
60027;DHT22;45891;53.006;6.512;2023-02-28T10:44:11;4.90;99.90
60027;DHT22;45891;53.006;6.512;2023-02-28T10:46:37;4.90;99.90
60027;DHT22;45891;53.006;6.512;2023-02-28T10:49:05;5.00;99.90
60027;DHT22;45891;53.006;6.512;2023-02-28T10:51:36;5.00;99.90
60027;DHT22;45891;53.006;6.512;2023-02-28T10:54:02;5.00;99.90
60027;DHT22;45891;53.006;6.512;2023-02-28T10:56:29;5.00;99.90
60027;DHT22;45891;53.006;6.512;2023-02-28T10:58:59;5.00;99.90
60027;DHT22;45891;53.006;6.512;2023-02-28T11:09:31;5.40;99.90
60027;DHT22;45891;53.006;6.512;2023-02-28T11:11:59;5.40;99.90
60027;DHT22;45891;53.006;6.512;2023-02-28T11:14:26;5.40;99.90
60027;DHT22;45891;53.006;6.512;2023-02-28T11:16:53;5.60;99.90
60027;DHT22;45891;53.006;6.512;2023-02-28T11:19:22;5.70;99.90
60027;DHT22;45891;53.006;6.512;2023-02-28T11:21:55;5.90;99.90
60027;DHT22;45891;53.006;6.512;2023-02-28T11:24:23;6.00;99.90
60027;DHT22;45891;53.006;6.512;2023-02-28T11:26:50;6.00;99.90
60027;DHT22;45891;53.006;6.512;2023-02-28T11:29:20;6.10;99.90
60027;DHT22;45891;53.006;6.512;2023-02-28T11:32:00;6.20;99.90
60027;DHT22;45891;53.006;6.512;2023-02-28T11:34:26;6.20;99.90
60027;DHT22;45891;53.006;6.512;2023-02-28T11:36:54;6.30;99.90
60027;DHT22;45891;53.006;6.512;2023-02-28T11:39:21;6.20;99.90
60027;DHT22;45891;53.006;6.512;2023-02-28T11:41:52;6.20;99.90
60027;DHT22;45891;53.006;6.512;2023-02-28T11:46:54;6.10;99.90
60027;DHT22;45891;53.006;6.512;2023-02-28T11:51:51;6.00;99.90
60027;DHT22;45891;53.006;6.512;2023-02-28T11:54:31;6.00;99.90
60027;DHT22;45891;53.006;6.512;2023-02-28T11:57:07;6.00;99.90
60027;DHT22;45891;53.006;6.512;2023-02-28T12:02:30;6.00;99.90
60027;DHT22;45891;53.006;6.512;2023-02-28T12:05:10;7.00;99.90
60027;DHT22;45891;53.006;6.512;2023-02-28T12:07:49;8.60;99.90
60027;DHT22;45891;53.006;6.512;2023-02-28T12:15:40;9.80;99.90
60027;DHT22;45891;53.006;6.512;2023-02-28T12:18:19;10.50;99.90
60027;DHT22;45891;53.006;6.512;2023-02-28T12:31:41;14.90;99.90
60027;DHT22;45891;53.006;6.512;2023-02-28T12:34:13;15.70;99.90
60027;DHT22;45891;53.006;6.512;2023-02-28T12:36:41;15.90;99.60
60027;DHT22;45891;53.006;6.512;2023-02-28T12:39:11;16.20;98.20
60027;DHT22;45891;53.006;6.512;2023-02-28T12:41:40;15.90;97.90
60027;DHT22;45891;53.006;6.512;2023-02-28T12:44:12;15.90;93.40
60027;DHT22;45891;53.006;6.512;2023-02-28T12:46:44;15.80;95.40
60027;DHT22;45891;53.006;6.512;2023-02-28T12:49:19;15.40;95.90
60027;DHT22;45891;53.006;6.512;2023-02-28T12:51:47;14.20;95.20
60027;DHT22;45891;53.006;6.512;2023-02-28T12:54:16;14.30;96.30
60027;DHT22;45891;53.006;6.512;2023-02-28T12:56:57;13.80;95.40
60027;DHT22;45891;53.006;6.512;2023-02-28T12:59:35;14.20;97.80
60027;DHT22;45891;53.006;6.512;2023-02-28T13:09:29;12.00;96.40
60027;DHT22;45891;53.006;6.512;2023-02-28T13:11:55;11.60;97.30
60027;DHT22;45891;53.006;6.512;2023-02-28T13:19:17;10.50;97.90
60027;DHT22;45891;53.006;6.512;2023-02-28T13:21:44;11.30;98.90
60027;DHT22;45891;53.006;6.512;2023-02-28T13:24:11;12.50;96.90
60027;DHT22;45891;53.006;6.512;2023-02-28T13:34:32;16.30;95.20
60027;DHT22;45891;53.006;6.512;2023-02-28T14:05:33;18.40;87.50
60027;DHT22;45891;53.006;6.512;2023-02-28T14:08:02;18.30;90.30
60027;DHT22;45891;53.006;6.512;2023-02-28T14:10:31;18.60;90.20
60027;DHT22;45891;53.006;6.512;2023-02-28T14:12:59;19.10;90.40
60027;DHT22;45891;53.006;6.512;2023-02-28T14:18:15;18.90;86.70
60027;DHT22;45891;53.006;6.512;2023-02-28T14:20:42;18.60;88.90
60027;DHT22;45891;53.006;6.512;2023-02-28T14:28:36;19.10;87.80
60027;DHT22;45891;53.006;6.512;2023-02-28T14:31:12;19.40;87.50
60027;DHT22;45891;53.006;6.512;2023-02-28T14:36:16;19.50;86.00
60027;DHT22;45891;53.006;6.512;2023-02-28T14:38:45;19.40;86.10
60027;DHT22;45891;53.006;6.512;2023-02-28T14:43:47;20.00;85.90
60027;DHT22;45891;53.006;6.512;2023-02-28T14:46:13;20.30;85.10
60027;DHT22;45891;53.006;6.512;2023-02-28T14:48:39;20.00;84.20
60027;DHT22;45891;53.006;6.512;2023-02-28T14:51:05;19.30;83.30
60027;DHT22;45891;53.006;6.512;2023-02-28T14:53:35;19.40;85.00
60027;DHT22;45891;53.006;6.512;2023-02-28T14:56:01;19.10;84.60
60027;DHT22;45891;53.006;6.512;2023-02-28T14:58:28;19.10;84.70
60027;DHT22;45891;53.006;6.512;2023-02-28T15:00:56;19.00;84.70
60027;DHT22;45891;53.006;6.512;2023-02-28T15:06:01;17.40;84.30
60027;DHT22;45891;53.006;6.512;2023-02-28T15:08:28;15.90;85.00
60027;DHT22;45891;53.006;6.512;2023-02-28T15:11:04;16.00;87.00
60027;DHT22;45891;53.006;6.512;2023-02-28T15:16:37;15.70;86.50
60027;DHT22;45891;53.006;6.512;2023-02-28T15:19:18;16.00;85.20
60027;DHT22;45891;53.006;6.512;2023-02-28T15:21:47;15.40;86.30
60027;DHT22;45891;53.006;6.512;2023-02-28T15:26:41;13.50;86.60
60027;DHT22;45891;53.006;6.512;2023-02-28T15:29:11;13.90;88.20
60027;DHT22;45891;53.006;6.512;2023-02-28T15:31:46;13.20;88.20
60027;DHT22;45891;53.006;6.512;2023-02-28T15:34:20;12.10;89.30
60027;DHT22;45891;53.006;6.512;2023-02-28T15:36:47;11.00;90.20
60027;DHT22;45891;53.006;6.512;2023-02-28T15:39:23;10.70;91.10
60027;DHT22;45891;53.006;6.512;2023-02-28T15:41:50;10.30;91.50
60027;DHT22;45891;53.006;6.512;2023-02-28T15:44:28;9.90;92.10
60027;DHT22;45891;53.006;6.512;2023-02-28T15:47:06;9.70;92.30
60027;DHT22;45891;53.006;6.512;2023-02-28T15:49:39;9.50;92.50
60027;DHT22;45891;53.006;6.512;2023-02-28T15:52:05;9.40;92.80
60027;DHT22;45891;53.006;6.512;2023-02-28T15:54:32;9.30;93.30
60027;DHT22;45891;53.006;6.512;2023-02-28T15:57:01;9.30;93.40
60027;DHT22;45891;53.006;6.512;2023-02-28T15:59:29;9.10;93.50
60027;DHT22;45891;53.006;6.512;2023-02-28T16:02:03;9.10;93.80
60027;DHT22;45891;53.006;6.512;2023-02-28T16:04:37;9.00;93.70
60027;DHT22;45891;53.006;6.512;2023-02-28T16:07:19;8.80;94.00
60027;DHT22;45891;53.006;6.512;2023-02-28T16:09:45;8.70;94.20
60027;DHT22;45891;53.006;6.512;2023-02-28T16:12:12;8.50;94.20
60027;DHT22;45891;53.006;6.512;2023-02-28T16:14:39;8.40;94.30
60027;DHT22;45891;53.006;6.512;2023-02-28T16:17:07;8.30;94.50
60027;DHT22;45891;53.006;6.512;2023-02-28T16:19:36;8.10;94.30
60027;DHT22;45891;53.006;6.512;2023-02-28T16:22:02;7.90;94.50
60027;DHT22;45891;53.006;6.512;2023-02-28T16:24:28;7.70;94.70
60027;DHT22;45891;53.006;6.512;2023-02-28T16:26:54;7.50;94.80
60027;DHT22;45891;53.006;6.512;2023-02-28T16:29:31;7.50;95.00
60027;DHT22;45891;53.006;6.512;2023-02-28T16:31:57;7.40;95.20
60027;DHT22;45891;53.006;6.512;2023-02-28T16:34:23;7.30;95.40
60027;DHT22;45891;53.006;6.512;2023-02-28T16:36:49;7.30;95.70
60027;DHT22;45891;53.006;6.512;2023-02-28T16:39:16;7.20;95.80
60027;DHT22;45891;53.006;6.512;2023-02-28T16:41:42;7.20;95.90
60027;DHT22;45891;53.006;6.512;2023-02-28T16:44:10;7.10;96.10
60027;DHT22;45891;53.006;6.512;2023-02-28T16:46:37;7.00;96.30
60027;DHT22;45891;53.006;6.512;2023-02-28T16:49:03;6.90;96.40
60027;DHT22;45891;53.006;6.512;2023-02-28T16:51:29;6.90;96.60
60027;DHT22;45891;53.006;6.512;2023-02-28T16:53:55;6.80;96.70
60027;DHT22;45891;53.006;6.512;2023-02-28T16:56:24;6.70;96.80
60027;DHT22;45891;53.006;6.512;2023-02-28T16:58:50;6.60;96.80
60027;DHT22;45891;53.006;6.512;2023-02-28T17:01:17;6.50;97.00
60027;DHT22;45891;53.006;6.512;2023-02-28T17:03:47;6.40;97.10
60027;DHT22;45891;53.006;6.512;2023-02-28T17:06:21;6.30;97.30
60027;DHT22;45891;53.006;6.512;2023-02-28T17:08:48;6.20;97.40
60027;DHT22;45891;53.006;6.512;2023-02-28T17:11:14;6.10;97.60
60027;DHT22;45891;53.006;6.512;2023-02-28T17:13:40;6.00;97.80
60027;DHT22;45891;53.006;6.512;2023-02-28T17:16:08;5.90;97.90
60027;DHT22;45891;53.006;6.512;2023-02-28T17:18:36;5.80;98.00
60027;DHT22;45891;53.006;6.512;2023-02-28T17:21:05;5.70;98.20
60027;DHT22;45891;53.006;6.512;2023-02-28T17:23:34;5.60;98.30
60027;DHT22;45891;53.006;6.512;2023-02-28T17:26:00;5.50;98.50
60027;DHT22;45891;53.006;6.512;2023-02-28T17:28:26;5.40;98.60
60027;DHT22;45891;53.006;6.512;2023-02-28T17:30:52;5.30;98.80
60027;DHT22;45891;53.006;6.512;2023-02-28T17:33:18;5.20;98.90
60027;DHT22;45891;53.006;6.512;2023-02-28T17:35:44;5.10;99.10
60027;DHT22;45891;53.006;6.512;2023-02-28T17:38:17;5.00;99.20
60027;DHT22;45891;53.006;6.512;2023-02-28T17:40:44;5.00;99.30
60027;DHT22;45891;53.006;6.512;2023-02-28T17:43:10;4.90;99.50
60027;DHT22;45891;53.006;6.512;2023-02-28T17:45:36;4.80;99.60
60027;DHT22;45891;53.006;6.512;2023-02-28T17:48:02;4.70;99.70
60027;DHT22;45891;53.006;6.512;2023-02-28T17:50:28;4.70;99.90
60027;DHT22;45891;53.006;6.512;2023-02-28T17:52:53;4.60;99.90
60027;DHT22;45891;53.006;6.512;2023-02-28T17:55:19;4.60;99.90
60027;DHT22;45891;53.006;6.512;2023-02-28T17:57:45;4.40;99.90
60027;DHT22;45891;53.006;6.512;2023-02-28T18:00:12;4.30;99.90
60027;DHT22;45891;53.006;6.512;2023-02-28T18:02:39;4.30;99.90
60027;DHT22;45891;53.006;6.512;2023-02-28T18:05:05;4.20;99.90
60027;DHT22;45891;53.006;6.512;2023-02-28T18:07:31;4.10;99.90
60027;DHT22;45891;53.006;6.512;2023-02-28T18:09:57;4.00;99.90
60027;DHT22;45891;53.006;6.512;2023-02-28T18:12:23;4.00;99.90
60027;DHT22;45891;53.006;6.512;2023-02-28T18:14:49;3.90;99.90
60027;DHT22;45891;53.006;6.512;2023-02-28T18:17:15;3.80;99.90
60027;DHT22;45891;53.006;6.512;2023-02-28T18:19:41;3.80;99.90